createdAt,value
2022-09-21T00:15:44.131Z,11.28
2022-09-21T00:32:33.518Z,11.37
2022-09-21T00:49:24.751Z,11.45
2022-09-21T01:06:13.299Z,11.49
2022-09-21T01:23:23.744Z,11.55
2022-09-21T01:40:17.176Z,11.63
2022-09-21T01:57:13.493Z,11.67
2022-09-21T02:14:02.434Z,11.79
2022-09-21T02:30:59.971Z,11.81
2022-09-21T02:47:53.799Z,11.90
2022-09-21T03:04:48.039Z,11.94
2022-09-21T03:21:39.176Z,11.97
2022-09-21T03:38:30.150Z,11.94
2022-09-21T03:55:18.287Z,12.04
2022-09-21T04:12:09.660Z,12.07
2022-09-21T04:28:58.882Z,12.10
2022-09-21T04:45:49.281Z,12.16
2022-09-21T05:02:37.388Z,12.31
2022-09-21T05:19:25.645Z,12.40
2022-09-21T05:36:30.710Z,12.42
2022-09-21T05:53:55.818Z,12.57
2022-09-21T06:10:47.040Z,12.74
2022-09-21T06:27:38.815Z,12.81
2022-09-21T06:44:30.876Z,12.97
2022-09-21T07:01:20.509Z,13.00
2022-09-21T07:18:16.249Z,13.09
2022-09-21T07:35:10.719Z,13.34
2022-09-21T07:52:03.492Z,13.40
2022-09-21T08:08:58.024Z,13.58
2022-09-21T08:25:49.138Z,13.89
2022-09-21T08:42:53.207Z,14.02
2022-09-21T08:59:47.878Z,14.01
2022-09-21T09:16:47.704Z,13.98
2022-09-21T09:33:46.571Z,14.08
2022-09-21T09:50:38.274Z,14.17
2022-09-21T10:07:38.162Z,14.31
2022-09-21T10:24:31.114Z,14.61
2022-09-21T10:41:19.486Z,14.71
2022-09-21T10:58:13.435Z,14.81
2022-09-21T11:15:12.726Z,14.92
2022-09-21T11:32:17.268Z,14.97
2022-09-21T11:49:28.093Z,15.05
2022-09-21T12:06:25.635Z,15.05
2022-09-21T12:23:21.083Z,15.30
2022-09-21T12:40:22.070Z,15.38
2022-09-21T12:57:42.680Z,15.48
2022-09-21T13:14:29.363Z,15.44
2022-09-21T13:31:45.156Z,15.34
2022-09-21T13:48:34.881Z,15.08
2022-09-21T14:05:32.293Z,15.12
2022-09-21T14:22:45.902Z,15.27
2022-09-21T14:39:41.081Z,15.30
2022-09-21T14:56:40.428Z,15.36
2022-09-21T15:14:02.439Z,15.38
2022-09-21T15:30:52.307Z,15.35
2022-09-21T15:47:42.563Z,15.34
2022-09-21T16:04:34.151Z,15.36
2022-09-21T16:21:27.987Z,15.07
2022-09-21T16:38:17.452Z,14.68
2022-09-21T16:55:06.611Z,14.45
2022-09-21T17:11:56.692Z,14.26
2022-09-21T17:28:45.807Z,14.02
2022-09-21T17:45:40.510Z,14.02
2022-09-21T18:02:30.004Z,13.84
2022-09-21T18:19:38.985Z,13.70
2022-09-21T18:36:33.917Z,13.73
2022-09-21T18:53:31.126Z,13.65
2022-09-21T19:10:26.079Z,13.37
2022-09-21T19:27:24.089Z,13.30
2022-09-21T19:44:31.998Z,13.19
2022-09-21T20:01:24.633Z,13.07
2022-09-21T20:18:21.974Z,13.16
2022-09-21T20:35:16.536Z,13.20
2022-09-21T20:52:09.659Z,13.04
2022-09-21T21:09:00.137Z,12.86
2022-09-21T21:25:50.682Z,12.76
2022-09-21T21:42:43.196Z,12.53
2022-09-21T21:59:32.800Z,12.41
2022-09-21T22:16:23.514Z,12.32
2022-09-21T22:33:12.601Z,12.21
2022-09-21T22:50:01.914Z,12.11
2022-09-21T23:06:51.544Z,12.12
2022-09-21T23:23:43.578Z,12.11
2022-09-21T23:40:31.711Z,12.04
2022-09-21T23:57:19.901Z,11.91
